sensor_id;sensor_type;location;lat;lon;timestamp;temperature;humidity
46309;DHT22;32037;50.820;6.494;2022-10-17T00:01:11;16.50;89.40
46309;DHT22;32037;50.820;6.494;2022-10-17T00:03:40;16.60;89.80
46309;DHT22;32037;50.820;6.494;2022-10-17T00:06:10;16.50;89.70
46309;DHT22;32037;50.820;6.494;2022-10-17T00:08:40;16.60;89.70
46309;DHT22;32037;50.820;6.494;2022-10-17T00:11:13;16.50;89.20
46309;DHT22;32037;50.820;6.494;2022-10-17T00:13:42;16.60;89.50
46309;DHT22;32037;50.820;6.494;2022-10-17T00:16:12;16.60;89.80
46309;DHT22;32037;50.820;6.494;2022-10-17T00:18:40;16.60;89.80
46309;DHT22;32037;50.820;6.494;2022-10-17T00:21:14;16.60;89.80
46309;DHT22;32037;50.820;6.494;2022-10-17T00:23:46;16.60;89.80
46309;DHT22;32037;50.820;6.494;2022-10-17T00:26:15;16.60;89.80
46309;DHT22;32037;50.820;6.494;2022-10-17T00:28:45;16.50;89.70
46309;DHT22;32037;50.820;6.494;2022-10-17T00:31:17;16.50;90.30
46309;DHT22;32037;50.820;6.494;2022-10-17T00:33:46;16.50;90.10
46309;DHT22;32037;50.820;6.494;2022-10-17T00:36:16;16.50;90.20
46309;DHT22;32037;50.820;6.494;2022-10-17T00:38:47;16.60;90.20
46309;DHT22;32037;50.820;6.494;2022-10-17T00:41:17;16.50;90.10
46309;DHT22;32037;50.820;6.494;2022-10-17T00:43:51;16.50;89.60
46309;DHT22;32037;50.820;6.494;2022-10-17T00:46:22;16.50;89.90
46309;DHT22;32037;50.820;6.494;2022-10-17T00:48:53;16.50;90.00
46309;DHT22;32037;50.820;6.494;2022-10-17T00:51:29;16.60;90.20
46309;DHT22;32037;50.820;6.494;2022-10-17T00:54:01;16.60;90.20
46309;DHT22;32037;50.820;6.494;2022-10-17T00:56:31;16.60;90.10
46309;DHT22;32037;50.820;6.494;2022-10-17T00:59:00;16.60;90.20
46309;DHT22;32037;50.820;6.494;2022-10-17T01:01:30;16.60;90.20
46309;DHT22;32037;50.820;6.494;2022-10-17T01:03:59;16.50;90.30
46309;DHT22;32037;50.820;6.494;2022-10-17T01:06:27;16.60;90.30
46309;DHT22;32037;50.820;6.494;2022-10-17T01:08:55;16.60;90.60
46309;DHT22;32037;50.820;6.494;2022-10-17T01:11:32;16.60;90.30
46309;DHT22;32037;50.820;6.494;2022-10-17T01:14:07;16.50;90.30
46309;DHT22;32037;50.820;6.494;2022-10-17T01:16:44;16.60;90.40
46309;DHT22;32037;50.820;6.494;2022-10-17T01:19:35;16.50;90.40
46309;DHT22;32037;50.820;6.494;2022-10-17T01:22:08;16.50;90.40
46309;DHT22;32037;50.820;6.494;2022-10-17T01:24:59;16.50;90.50
46309;DHT22;32037;50.820;6.494;2022-10-17T01:27:55;16.60;90.40
46309;DHT22;32037;50.820;6.494;2022-10-17T01:33:27;16.60;90.60
46309;DHT22;32037;50.820;6.494;2022-10-17T01:36:00;16.60;90.40
46309;DHT22;32037;50.820;6.494;2022-10-17T01:38:37;16.60;90.70
46309;DHT22;32037;50.820;6.494;2022-10-17T01:41:13;16.60;90.70
46309;DHT22;32037;50.820;6.494;2022-10-17T01:43:48;16.50;90.70
46309;DHT22;32037;50.820;6.494;2022-10-17T01:46:21;16.60;90.60
46309;DHT22;32037;50.820;6.494;2022-10-17T01:48:55;16.50;90.50
46309;DHT22;32037;50.820;6.494;2022-10-17T01:51:28;16.60;90.60
46309;DHT22;32037;50.820;6.494;2022-10-17T01:54:01;16.50;90.80
46309;DHT22;32037;50.820;6.494;2022-10-17T01:56:31;16.50;90.90
46309;DHT22;32037;50.820;6.494;2022-10-17T01:59:05;16.60;90.80
46309;DHT22;32037;50.820;6.494;2022-10-17T02:01:38;16.50;90.60
46309;DHT22;32037;50.820;6.494;2022-10-17T02:04:10;16.60;90.90
46309;DHT22;32037;50.820;6.494;2022-10-17T02:06:42;16.60;90.70
46309;DHT22;32037;50.820;6.494;2022-10-17T02:09:17;16.50;90.60
46309;DHT22;32037;50.820;6.494;2022-10-17T02:12:02;16.60;90.80
46309;DHT22;32037;50.820;6.494;2022-10-17T02:14:44;16.60;90.90
46309;DHT22;32037;50.820;6.494;2022-10-17T02:17:24;16.50;90.70
46309;DHT22;32037;50.820;6.494;2022-10-17T02:20:04;16.60;90.80
46309;DHT22;32037;50.820;6.494;2022-10-17T02:22:40;16.60;90.90
46309;DHT22;32037;50.820;6.494;2022-10-17T02:25:19;16.60;90.70
46309;DHT22;32037;50.820;6.494;2022-10-17T02:27:55;16.50;90.80
46309;DHT22;32037;50.820;6.494;2022-10-17T02:30:30;16.50;90.70
46309;DHT22;32037;50.820;6.494;2022-10-17T02:33:05;16.60;90.70
46309;DHT22;32037;50.820;6.494;2022-10-17T02:35:40;16.60;90.90
46309;DHT22;32037;50.820;6.494;2022-10-17T02:38:11;16.60;90.90
46309;DHT22;32037;50.820;6.494;2022-10-17T02:40:44;16.60;91.10
46309;DHT22;32037;50.820;6.494;2022-10-17T02:43:14;16.60;91.00
46309;DHT22;32037;50.820;6.494;2022-10-17T02:45:42;16.60;91.60
46309;DHT22;32037;50.820;6.494;2022-10-17T02:48:15;16.60;91.00
46309;DHT22;32037;50.820;6.494;2022-10-17T02:50:51;16.50;91.00
46309;DHT22;32037;50.820;6.494;2022-10-17T02:53:28;16.60;91.10
46309;DHT22;32037;50.820;6.494;2022-10-17T02:56:06;16.50;91.00
46309;DHT22;32037;50.820;6.494;2022-10-17T02:58:36;16.50;91.00
46309;DHT22;32037;50.820;6.494;2022-10-17T03:01:06;16.50;91.10
46309;DHT22;32037;50.820;6.494;2022-10-17T03:03:35;16.50;91.10
46309;DHT22;32037;50.820;6.494;2022-10-17T03:06:05;16.60;91.20
46309;DHT22;32037;50.820;6.494;2022-10-17T03:08:33;16.50;91.10
46309;DHT22;32037;50.820;6.494;2022-10-17T03:11:02;16.50;91.20
46309;DHT22;32037;50.820;6.494;2022-10-17T03:13:31;16.60;91.20
46309;DHT22;32037;50.820;6.494;2022-10-17T03:16:05;16.60;91.10
46309;DHT22;32037;50.820;6.494;2022-10-17T03:18:34;16.60;91.10
46309;DHT22;32037;50.820;6.494;2022-10-17T03:21:05;16.50;91.00
46309;DHT22;32037;50.820;6.494;2022-10-17T03:23:34;16.60;90.90
46309;DHT22;32037;50.820;6.494;2022-10-17T03:26:05;16.60;91.00
46309;DHT22;32037;50.820;6.494;2022-10-17T03:28:34;16.60;91.20
46309;DHT22;32037;50.820;6.494;2022-10-17T03:31:07;16.50;91.00
46309;DHT22;32037;50.820;6.494;2022-10-17T03:33:37;16.60;90.90
46309;DHT22;32037;50.820;6.494;2022-10-17T03:36:09;16.50;91.00
46309;DHT22;32037;50.820;6.494;2022-10-17T03:38:38;16.50;90.90
46309;DHT22;32037;50.820;6.494;2022-10-17T03:41:07;16.60;91.00
46309;DHT22;32037;50.820;6.494;2022-10-17T03:43:37;16.50;90.90
46309;DHT22;32037;50.820;6.494;2022-10-17T03:46:07;16.60;91.00
46309;DHT22;32037;50.820;6.494;2022-10-17T03:48:36;16.60;90.90
46309;DHT22;32037;50.820;6.494;2022-10-17T03:51:08;16.50;91.10
46309;DHT22;32037;50.820;6.494;2022-10-17T03:53:45;16.60;91.20
46309;DHT22;32037;50.820;6.494;2022-10-17T03:56:14;16.60;91.10
46309;DHT22;32037;50.820;6.494;2022-10-17T03:58:49;16.50;91.20
46309;DHT22;32037;50.820;6.494;2022-10-17T04:01:18;16.50;91.00
46309;DHT22;32037;50.820;6.494;2022-10-17T04:03:48;16.50;91.00
46309;DHT22;32037;50.820;6.494;2022-10-17T04:06:19;16.60;91.20
46309;DHT22;32037;50.820;6.494;2022-10-17T04:08:48;16.60;91.30
46309;DHT22;32037;50.820;6.494;2022-10-17T04:11:32;16.50;91.10
46309;DHT22;32037;50.820;6.494;2022-10-17T04:14:02;16.60;91.30
46309;DHT22;32037;50.820;6.494;2022-10-17T04:16:31;16.60;91.30
46309;DHT22;32037;50.820;6.494;2022-10-17T04:19:03;16.60;91.40
46309;DHT22;32037;50.820;6.494;2022-10-17T04:21:40;16.60;91.20
46309;DHT22;32037;50.820;6.494;2022-10-17T04:24:10;16.60;91.20
46309;DHT22;32037;50.820;6.494;2022-10-17T04:26:50;16.60;91.20
46309;DHT22;32037;50.820;6.494;2022-10-17T04:29:21;16.60;91.00
46309;DHT22;32037;50.820;6.494;2022-10-17T04:31:52;16.60;91.30
46309;DHT22;32037;50.820;6.494;2022-10-17T04:34:29;16.60;91.20
46309;DHT22;32037;50.820;6.494;2022-10-17T04:36:59;16.50;91.30
46309;DHT22;32037;50.820;6.494;2022-10-17T04:39:28;16.50;91.20
46309;DHT22;32037;50.820;6.494;2022-10-17T04:41:57;16.50;91.10
46309;DHT22;32037;50.820;6.494;2022-10-17T04:44:25;16.60;91.30
46309;DHT22;32037;50.820;6.494;2022-10-17T04:46:57;16.50;91.00
46309;DHT22;32037;50.820;6.494;2022-10-17T04:49:26;16.60;91.30
46309;DHT22;32037;50.820;6.494;2022-10-17T04:52:01;16.60;91.30
46309;DHT22;32037;50.820;6.494;2022-10-17T04:54:36;16.60;91.30
46309;DHT22;32037;50.820;6.494;2022-10-17T04:57:07;16.60;91.50
46309;DHT22;32037;50.820;6.494;2022-10-17T04:59:38;16.50;91.40
46309;DHT22;32037;50.820;6.494;2022-10-17T05:02:24;16.60;91.50
46309;DHT22;32037;50.820;6.494;2022-10-17T05:04:54;16.60;91.20
46309;DHT22;32037;50.820;6.494;2022-10-17T05:07:24;16.60;91.20
46309;DHT22;32037;50.820;6.494;2022-10-17T05:10:01;16.60;91.30
46309;DHT22;32037;50.820;6.494;2022-10-17T05:12:31;16.50;91.20
46309;DHT22;32037;50.820;6.494;2022-10-17T05:15:00;16.60;91.20
46309;DHT22;32037;50.820;6.494;2022-10-17T05:17:29;16.50;91.00
46309;DHT22;32037;50.820;6.494;2022-10-17T05:19:58;16.60;91.20
46309;DHT22;32037;50.820;6.494;2022-10-17T05:22:31;16.60;91.10
46309;DHT22;32037;50.820;6.494;2022-10-17T05:25:05;16.50;91.20
46309;DHT22;32037;50.820;6.494;2022-10-17T05:27:33;16.50;90.90
46309;DHT22;32037;50.820;6.494;2022-10-17T05:30:02;16.60;91.10
46309;DHT22;32037;50.820;6.494;2022-10-17T05:32:33;16.50;91.00
46309;DHT22;32037;50.820;6.494;2022-10-17T05:35:02;16.60;91.00
46309;DHT22;32037;50.820;6.494;2022-10-17T05:37:33;16.50;90.90
46309;DHT22;32037;50.820;6.494;2022-10-17T05:40:02;16.50;90.90
46309;DHT22;32037;50.820;6.494;2022-10-17T05:42:31;16.60;91.10
46309;DHT22;32037;50.820;6.494;2022-10-17T05:45:00;16.60;91.10
46309;DHT22;32037;50.820;6.494;2022-10-17T05:47:29;16.50;90.90
46309;DHT22;32037;50.820;6.494;2022-10-17T05:49:58;16.60;90.70
46309;DHT22;32037;50.820;6.494;2022-10-17T05:52:36;16.50;90.70
46309;DHT22;32037;50.820;6.494;2022-10-17T05:55:10;16.50;90.60
46309;DHT22;32037;50.820;6.494;2022-10-17T05:57:39;16.60;90.60
46309;DHT22;32037;50.820;6.494;2022-10-17T06:00:13;16.60;90.70
46309;DHT22;32037;50.820;6.494;2022-10-17T06:02:44;16.50;90.50
46309;DHT22;32037;50.820;6.494;2022-10-17T06:05:14;16.50;90.60
46309;DHT22;32037;50.820;6.494;2022-10-17T06:07:44;16.50;90.50
46309;DHT22;32037;50.820;6.494;2022-10-17T06:10:14;16.50;90.50
46309;DHT22;32037;50.820;6.494;2022-10-17T06:12:44;16.50;90.50
46309;DHT22;32037;50.820;6.494;2022-10-17T06:15:14;16.50;90.50
46309;DHT22;32037;50.820;6.494;2022-10-17T06:17:47;16.50;90.40
46309;DHT22;32037;50.820;6.494;2022-10-17T06:20:15;16.50;90.30
46309;DHT22;32037;50.820;6.494;2022-10-17T06:22:45;16.50;90.30
46309;DHT22;32037;50.820;6.494;2022-10-17T06:25:21;16.50;90.30
46309;DHT22;32037;50.820;6.494;2022-10-17T06:27:50;16.50;90.40
46309;DHT22;32037;50.820;6.494;2022-10-17T06:30:20;16.50;90.30
46309;DHT22;32037;50.820;6.494;2022-10-17T06:32:49;16.50;90.40
46309;DHT22;32037;50.820;6.494;2022-10-17T06:35:19;16.50;90.40
46309;DHT22;32037;50.820;6.494;2022-10-17T06:37:49;16.50;90.30
46309;DHT22;32037;50.820;6.494;2022-10-17T06:40:17;16.50;90.30
46309;DHT22;32037;50.820;6.494;2022-10-17T06:42:46;16.50;90.20
46309;DHT22;32037;50.820;6.494;2022-10-17T06:45:33;16.50;90.10
46309;DHT22;32037;50.820;6.494;2022-10-17T06:48:28;16.50;90.10
46309;DHT22;32037;50.820;6.494;2022-10-17T06:51:35;16.50;90.10
46309;DHT22;32037;50.820;6.494;2022-10-17T06:54:08;16.50;90.10
46309;DHT22;32037;50.820;6.494;2022-10-17T06:56:55;16.50;90.10
46309;DHT22;32037;50.820;6.494;2022-10-17T06:59:26;16.50;90.10
46309;DHT22;32037;50.820;6.494;2022-10-17T07:02:03;16.50;90.80
46309;DHT22;32037;50.820;6.494;2022-10-17T07:04:32;16.60;90.40
46309;DHT22;32037;50.820;6.494;2022-10-17T07:07:00;16.60;90.20
46309;DHT22;32037;50.820;6.494;2022-10-17T07:09:33;16.60;90.10
46309;DHT22;32037;50.820;6.494;2022-10-17T07:12:01;16.60;89.90
46309;DHT22;32037;50.820;6.494;2022-10-17T07:14:33;16.60;90.20
46309;DHT22;32037;50.820;6.494;2022-10-17T07:17:01;16.60;90.10
46309;DHT22;32037;50.820;6.494;2022-10-17T07:19:31;16.60;90.30
46309;DHT22;32037;50.820;6.494;2022-10-17T07:22:00;16.60;90.40
46309;DHT22;32037;50.820;6.494;2022-10-17T07:24:30;16.60;90.30
46309;DHT22;32037;50.820;6.494;2022-10-17T07:27:16;16.50;90.20
46309;DHT22;32037;50.820;6.494;2022-10-17T07:29:45;16.60;90.60
46309;DHT22;32037;50.820;6.494;2022-10-17T07:32:22;16.60;90.60
46309;DHT22;32037;50.820;6.494;2022-10-17T07:34:51;16.60;90.70
46309;DHT22;32037;50.820;6.494;2022-10-17T07:37:19;16.60;90.60
46309;DHT22;32037;50.820;6.494;2022-10-17T07:39:52;16.60;90.70
46309;DHT22;32037;50.820;6.494;2022-10-17T07:42:23;16.60;90.60
46309;DHT22;32037;50.820;6.494;2022-10-17T07:44:54;16.60;90.70
46309;DHT22;32037;50.820;6.494;2022-10-17T07:47:24;16.60;90.60
46309;DHT22;32037;50.820;6.494;2022-10-17T07:49:54;16.60;90.70
46309;DHT22;32037;50.820;6.494;2022-10-17T07:52:22;16.60;90.50
46309;DHT22;32037;50.820;6.494;2022-10-17T07:54:51;16.60;90.50
46309;DHT22;32037;50.820;6.494;2022-10-17T07:57:20;16.60;90.40
46309;DHT22;32037;50.820;6.494;2022-10-17T07:59:49;16.60;90.40
46309;DHT22;32037;50.820;6.494;2022-10-17T08:02:21;16.60;90.40
46309;DHT22;32037;50.820;6.494;2022-10-17T08:04:50;16.60;90.30
46309;DHT22;32037;50.820;6.494;2022-10-17T08:07:18;16.60;90.20
46309;DHT22;32037;50.820;6.494;2022-10-17T08:09:54;16.60;90.30
46309;DHT22;32037;50.820;6.494;2022-10-17T08:12:23;16.60;90.30
46309;DHT22;32037;50.820;6.494;2022-10-17T08:14:53;16.70;90.40
46309;DHT22;32037;50.820;6.494;2022-10-17T08:17:21;16.60;90.20
46309;DHT22;32037;50.820;6.494;2022-10-17T08:19:50;16.60;90.20
46309;DHT22;32037;50.820;6.494;2022-10-17T08:22:20;16.60;90.20
46309;DHT22;32037;50.820;6.494;2022-10-17T08:24:48;16.60;90.30
46309;DHT22;32037;50.820;6.494;2022-10-17T08:27:17;16.70;90.20
46309;DHT22;32037;50.820;6.494;2022-10-17T08:29:50;16.70;90.10
46309;DHT22;32037;50.820;6.494;2022-10-17T08:32:22;16.70;90.10
46309;DHT22;32037;50.820;6.494;2022-10-17T08:34:52;16.60;90.10
46309;DHT22;32037;50.820;6.494;2022-10-17T08:37:22;16.60;90.10
46309;DHT22;32037;50.820;6.494;2022-10-17T08:39:50;16.60;90.00
46309;DHT22;32037;50.820;6.494;2022-10-17T08:42:30;16.60;90.10
46309;DHT22;32037;50.820;6.494;2022-10-17T08:45:10;16.70;90.00
46309;DHT22;32037;50.820;6.494;2022-10-17T08:47:45;16.60;90.20
46309;DHT22;32037;50.820;6.494;2022-10-17T08:50:20;16.60;90.10
46309;DHT22;32037;50.820;6.494;2022-10-17T08:52:52;16.60;90.10
46309;DHT22;32037;50.820;6.494;2022-10-17T08:55:27;16.60;90.10
46309;DHT22;32037;50.820;6.494;2022-10-17T08:57:56;16.60;90.10
46309;DHT22;32037;50.820;6.494;2022-10-17T09:00:26;16.70;90.00
46309;DHT22;32037;50.820;6.494;2022-10-17T09:03:18;16.60;89.80
46309;DHT22;32037;50.820;6.494;2022-10-17T09:05:58;16.60;89.80
46309;DHT22;32037;50.820;6.494;2022-10-17T09:08:38;16.60;89.80
46309;DHT22;32037;50.820;6.494;2022-10-17T09:11:24;16.70;89.90
46309;DHT22;32037;50.820;6.494;2022-10-17T09:14:07;16.60;90.40
46309;DHT22;32037;50.820;6.494;2022-10-17T09:17:04;16.70;89.90
46309;DHT22;32037;50.820;6.494;2022-10-17T09:19:39;16.70;89.90
46309;DHT22;32037;50.820;6.494;2022-10-17T09:22:11;16.60;89.80
46309;DHT22;32037;50.820;6.494;2022-10-17T09:24:45;16.70;89.90
46309;DHT22;32037;50.820;6.494;2022-10-17T09:27:21;16.70;89.90
46309;DHT22;32037;50.820;6.494;2022-10-17T09:30:21;16.60;89.80
46309;DHT22;32037;50.820;6.494;2022-10-17T09:33:11;16.60;89.80
46309;DHT22;32037;50.820;6.494;2022-10-17T09:36:03;16.70;89.90
46309;DHT22;32037;50.820;6.494;2022-10-17T09:38:38;16.70;89.90
46309;DHT22;32037;50.820;6.494;2022-10-17T09:41:14;16.60;89.80
46309;DHT22;32037;50.820;6.494;2022-10-17T09:44:17;16.60;89.80
46309;DHT22;32037;50.820;6.494;2022-10-17T09:46:58;16.60;89.80
46309;DHT22;32037;50.820;6.494;2022-10-17T09:49:32;16.70;89.90
46309;DHT22;32037;50.820;6.494;2022-10-17T09:52:04;16.60;89.80
46309;DHT22;32037;50.820;6.494;2022-10-17T09:54:40;16.60;89.80
46309;DHT22;32037;50.820;6.494;2022-10-17T09:57:10;16.60;89.80
46309;DHT22;32037;50.820;6.494;2022-10-17T09:59:41;16.60;89.80
46309;DHT22;32037;50.820;6.494;2022-10-17T10:02:18;16.60;89.80
46309;DHT22;32037;50.820;6.494;2022-10-17T10:04:53;16.60;89.80
46309;DHT22;32037;50.820;6.494;2022-10-17T10:07:38;16.70;89.90
46309;DHT22;32037;50.820;6.494;2022-10-17T10:10:23;16.70;89.90
46309;DHT22;32037;50.820;6.494;2022-10-17T10:13:06;16.60;89.80
46309;DHT22;32037;50.820;6.494;2022-10-17T10:15:36;16.60;89.60
46309;DHT22;32037;50.820;6.494;2022-10-17T10:18:28;16.60;89.70
46309;DHT22;32037;50.820;6.494;2022-10-17T10:21:05;16.70;89.60
46309;DHT22;32037;50.820;6.494;2022-10-17T10:23:38;16.70;89.90
46309;DHT22;32037;50.820;6.494;2022-10-17T10:26:21;16.60;89.80
46309;DHT22;32037;50.820;6.494;2022-10-17T10:28:56;16.70;89.80
46309;DHT22;32037;50.820;6.494;2022-10-17T10:31:30;16.70;89.80
46309;DHT22;32037;50.820;6.494;2022-10-17T10:34:02;16.70;89.90
46309;DHT22;32037;50.820;6.494;2022-10-17T10:36:54;16.70;89.80
46309;DHT22;32037;50.820;6.494;2022-10-17T10:39:47;16.70;89.90
46309;DHT22;32037;50.820;6.494;2022-10-17T10:42:21;16.80;90.00
46309;DHT22;32037;50.820;6.494;2022-10-17T10:44:51;16.90;90.00
46309;DHT22;32037;50.820;6.494;2022-10-17T10:47:22;16.80;90.30
46309;DHT22;32037;50.820;6.494;2022-10-17T10:50:07;16.80;90.30
46309;DHT22;32037;50.820;6.494;2022-10-17T10:52:40;16.90;90.60
46309;DHT22;32037;50.820;6.494;2022-10-17T10:55:19;16.90;90.80
46309;DHT22;32037;50.820;6.494;2022-10-17T10:57:52;16.90;90.90
46309;DHT22;32037;50.820;6.494;2022-10-17T11:00:24;16.90;91.00
46309;DHT22;32037;50.820;6.494;2022-10-17T11:03:01;16.90;91.10
46309;DHT22;32037;50.820;6.494;2022-10-17T11:05:40;16.90;91.30
46309;DHT22;32037;50.820;6.494;2022-10-17T11:08:17;16.90;91.60
46309;DHT22;32037;50.820;6.494;2022-10-17T11:10:58;17.00;91.80
46309;DHT22;32037;50.820;6.494;2022-10-17T11:13:32;16.90;91.90
46309;DHT22;32037;50.820;6.494;2022-10-17T11:16:13;16.90;92.10
46309;DHT22;32037;50.820;6.494;2022-10-17T11:18:47;17.00;93.00
46309;DHT22;32037;50.820;6.494;2022-10-17T11:21:22;17.00;92.70
46309;DHT22;32037;50.820;6.494;2022-10-17T11:23:58;17.00;92.80
46309;DHT22;32037;50.820;6.494;2022-10-17T11:26:40;17.00;93.20
46309;DHT22;32037;50.820;6.494;2022-10-17T11:29:11;17.00;93.40
46309;DHT22;32037;50.820;6.494;2022-10-17T11:31:47;17.00;93.80
46309;DHT22;32037;50.820;6.494;2022-10-17T11:34:20;17.00;93.80
46309;DHT22;32037;50.820;6.494;2022-10-17T11:36:52;17.00;94.20
46309;DHT22;32037;50.820;6.494;2022-10-17T11:39:29;17.00;94.20
46309;DHT22;32037;50.820;6.494;2022-10-17T11:42:03;17.10;94.70
46309;DHT22;32037;50.820;6.494;2022-10-17T11:44:35;17.10;94.80
46309;DHT22;32037;50.820;6.494;2022-10-17T11:47:06;17.10;95.00
46309;DHT22;32037;50.820;6.494;2022-10-17T11:49:41;17.10;95.20
46309;DHT22;32037;50.820;6.494;2022-10-17T11:52:26;17.10;95.40
46309;DHT22;32037;50.820;6.494;2022-10-17T11:55:18;17.10;95.60
46309;DHT22;32037;50.820;6.494;2022-10-17T11:58:11;17.10;95.90
46309;DHT22;32037;50.820;6.494;2022-10-17T12:00:53;17.10;96.10
46309;DHT22;32037;50.820;6.494;2022-10-17T12:03:33;17.10;96.80
46309;DHT22;32037;50.820;6.494;2022-10-17T12:06:10;17.20;97.20
46309;DHT22;32037;50.820;6.494;2022-10-17T12:08:45;17.20;96.60
46309;DHT22;32037;50.820;6.494;2022-10-17T12:11:27;17.20;96.60
46309;DHT22;32037;50.820;6.494;2022-10-17T12:14:02;17.20;96.50
46309;DHT22;32037;50.820;6.494;2022-10-17T12:16:43;17.20;96.30
46309;DHT22;32037;50.820;6.494;2022-10-17T12:19:31;17.20;96.40
46309;DHT22;32037;50.820;6.494;2022-10-17T12:22:14;17.20;96.20
46309;DHT22;32037;50.820;6.494;2022-10-17T12:24:53;17.20;96.30
46309;DHT22;32037;50.820;6.494;2022-10-17T12:27:30;17.20;96.30
46309;DHT22;32037;50.820;6.494;2022-10-17T12:30:02;17.20;96.30
46309;DHT22;32037;50.820;6.494;2022-10-17T12:32:32;17.20;96.10
46309;DHT22;32037;50.820;6.494;2022-10-17T12:35:22;17.20;96.40
46309;DHT22;32037;50.820;6.494;2022-10-17T12:38:17;17.20;96.30
46309;DHT22;32037;50.820;6.494;2022-10-17T12:41:00;17.20;96.30
46309;DHT22;32037;50.820;6.494;2022-10-17T12:43:47;17.20;96.50
46309;DHT22;32037;50.820;6.494;2022-10-17T12:49:39;17.30;96.70
46309;DHT22;32037;50.820;6.494;2022-10-17T12:54:59;17.30;96.60
46309;DHT22;32037;50.820;6.494;2022-10-17T12:57:51;17.30;96.60
46309;DHT22;32037;50.820;6.494;2022-10-17T13:00:26;17.30;96.60
46309;DHT22;32037;50.820;6.494;2022-10-17T13:03:01;17.30;96.50
46309;DHT22;32037;50.820;6.494;2022-10-17T13:05:32;17.30;96.60
46309;DHT22;32037;50.820;6.494;2022-10-17T13:08:06;17.30;96.60
46309;DHT22;32037;50.820;6.494;2022-10-17T13:10:37;17.30;96.80
46309;DHT22;32037;50.820;6.494;2022-10-17T13:13:14;17.30;97.00
46309;DHT22;32037;50.820;6.494;2022-10-17T13:15:47;17.30;96.90
46309;DHT22;32037;50.820;6.494;2022-10-17T13:18:19;17.30;97.10
46309;DHT22;32037;50.820;6.494;2022-10-17T13:20:57;17.30;97.10
46309;DHT22;32037;50.820;6.494;2022-10-17T13:23:30;17.30;97.20
46309;DHT22;32037;50.820;6.494;2022-10-17T13:26:11;17.30;97.40
46309;DHT22;32037;50.820;6.494;2022-10-17T13:28:41;17.40;97.50
46309;DHT22;32037;50.820;6.494;2022-10-17T13:31:29;17.40;97.70
46309;DHT22;32037;50.820;6.494;2022-10-17T13:34:00;17.40;97.60
46309;DHT22;32037;50.820;6.494;2022-10-17T13:36:30;17.40;97.70
46309;DHT22;32037;50.820;6.494;2022-10-17T13:39:05;17.40;97.70
46309;DHT22;32037;50.820;6.494;2022-10-17T13:41:40;17.40;97.70
46309;DHT22;32037;50.820;6.494;2022-10-17T13:44:13;17.40;97.60
46309;DHT22;32037;50.820;6.494;2022-10-17T13:46:44;17.40;97.50
46309;DHT22;32037;50.820;6.494;2022-10-17T13:49:20;17.40;97.60
46309;DHT22;32037;50.820;6.494;2022-10-17T13:51:57;17.40;97.50
46309;DHT22;32037;50.820;6.494;2022-10-17T13:54:36;17.40;97.60
46309;DHT22;32037;50.820;6.494;2022-10-17T13:57:17;17.40;97.50
46309;DHT22;32037;50.820;6.494;2022-10-17T13:59:49;17.40;97.50
46309;DHT22;32037;50.820;6.494;2022-10-17T14:02:20;17.40;97.40
46309;DHT22;32037;50.820;6.494;2022-10-17T14:04:59;17.50;97.50
46309;DHT22;32037;50.820;6.494;2022-10-17T14:07:50;17.50;97.50
46309;DHT22;32037;50.820;6.494;2022-10-17T14:10:40;17.50;97.40
46309;DHT22;32037;50.820;6.494;2022-10-17T14:13:19;17.50;97.60
46309;DHT22;32037;50.820;6.494;2022-10-17T14:15:52;17.50;97.60
46309;DHT22;32037;50.820;6.494;2022-10-17T14:18:24;17.50;97.60
46309;DHT22;32037;50.820;6.494;2022-10-17T14:21:02;17.50;97.50
46309;DHT22;32037;50.820;6.494;2022-10-17T14:24:12;17.50;97.50
46309;DHT22;32037;50.820;6.494;2022-10-17T14:26:49;17.50;97.30
46309;DHT22;32037;50.820;6.494;2022-10-17T14:29:22;17.50;97.40
46309;DHT22;32037;50.820;6.494;2022-10-17T14:32:01;17.50;97.40
46309;DHT22;32037;50.820;6.494;2022-10-17T14:34:33;17.50;97.40
46309;DHT22;32037;50.820;6.494;2022-10-17T14:37:09;17.50;97.40
46309;DHT22;32037;50.820;6.494;2022-10-17T14:39:40;17.50;97.40
46309;DHT22;32037;50.820;6.494;2022-10-17T14:42:17;17.50;97.30
46309;DHT22;32037;50.820;6.494;2022-10-17T14:44:48;17.50;97.40
46309;DHT22;32037;50.820;6.494;2022-10-17T14:47:19;17.50;97.40
46309;DHT22;32037;50.820;6.494;2022-10-17T14:50:20;17.50;97.30
46309;DHT22;32037;50.820;6.494;2022-10-17T14:53:01;17.50;97.20
46309;DHT22;32037;50.820;6.494;2022-10-17T14:55:33;17.50;97.30
46309;DHT22;32037;50.820;6.494;2022-10-17T14:58:15;17.50;97.40
46309;DHT22;32037;50.820;6.494;2022-10-17T15:00:43;17.50;97.30
46309;DHT22;32037;50.820;6.494;2022-10-17T15:03:12;17.50;97.40
46309;DHT22;32037;50.820;6.494;2022-10-17T15:05:41;17.50;97.40
46309;DHT22;32037;50.820;6.494;2022-10-17T15:08:12;17.50;97.50
46309;DHT22;32037;50.820;6.494;2022-10-17T15:10:43;17.50;97.40
46309;DHT22;32037;50.820;6.494;2022-10-17T15:13:13;17.50;97.50
46309;DHT22;32037;50.820;6.494;2022-10-17T15:15:54;17.50;97.60
46309;DHT22;32037;50.820;6.494;2022-10-17T15:18:23;17.50;97.70
46309;DHT22;32037;50.820;6.494;2022-10-17T15:20:52;17.50;97.50
46309;DHT22;32037;50.820;6.494;2022-10-17T15:23:32;17.50;97.60
46309;DHT22;32037;50.820;6.494;2022-10-17T15:26:04;17.50;97.60
46309;DHT22;32037;50.820;6.494;2022-10-17T15:28:33;17.50;97.70
46309;DHT22;32037;50.820;6.494;2022-10-17T15:31:02;17.50;97.50
46309;DHT22;32037;50.820;6.494;2022-10-17T15:33:31;17.50;97.40
46309;DHT22;32037;50.820;6.494;2022-10-17T15:36:00;17.50;97.50
46309;DHT22;32037;50.820;6.494;2022-10-17T15:38:29;17.50;97.60
46309;DHT22;32037;50.820;6.494;2022-10-17T15:40:59;17.50;97.70
46309;DHT22;32037;50.820;6.494;2022-10-17T15:43:29;17.50;97.60
46309;DHT22;32037;50.820;6.494;2022-10-17T15:45:59;17.50;97.90
46309;DHT22;32037;50.820;6.494;2022-10-17T15:48:29;17.50;97.70
46309;DHT22;32037;50.820;6.494;2022-10-17T15:50:59;17.50;97.80
46309;DHT22;32037;50.820;6.494;2022-10-17T15:53:27;17.50;97.70
46309;DHT22;32037;50.820;6.494;2022-10-17T15:55:57;17.50;98.60
46309;DHT22;32037;50.820;6.494;2022-10-17T15:58:33;17.50;97.80
46309;DHT22;32037;50.820;6.494;2022-10-17T16:01:03;17.50;97.60
46309;DHT22;32037;50.820;6.494;2022-10-17T16:03:33;17.50;97.30
46309;DHT22;32037;50.820;6.494;2022-10-17T16:06:03;17.50;97.10
46309;DHT22;32037;50.820;6.494;2022-10-17T16:08:34;17.40;96.90
46309;DHT22;32037;50.820;6.494;2022-10-17T16:11:03;17.40;96.90
46309;DHT22;32037;50.820;6.494;2022-10-17T16:13:34;17.40;96.80
46309;DHT22;32037;50.820;6.494;2022-10-17T16:16:04;17.40;96.60
46309;DHT22;32037;50.820;6.494;2022-10-17T16:18:33;17.40;96.50
46309;DHT22;32037;50.820;6.494;2022-10-17T16:21:03;17.40;96.40
46309;DHT22;32037;50.820;6.494;2022-10-17T16:23:32;17.40;96.40